• Join FlightAware (Why Join?)
  • Login
  • US Flag 
12:42PM EDT


 

Airport Tracker/Info


-or-


 

Live Flight TrackerFlight Track Log ✈ ASQ5058 ✈ 26-Feb-2014 ✈ KMLI - KATL

Flight Track Log - Related Links

Times and Time Zones

All times are in EST time to prevent confusion due to time zone crossing. See the ASQ5058 flight status page for this flight to view local times or setup timezone preferences in your user account.

Time Position Orientation Groundspeed Altitude Reporting Facility
EST Latitude Longitude Course Direction KTS MPH feet Rate Location/Type
12:38PM 41.3200 -90.5575 175° South 239 275 6,900  Level Chicago Center
12:39PM 41.2403 -90.5592 181° South 275 316 9,200 1,860 Climbing Chicago Center
12:40PM 41.1536 -90.5569 179° South 306 352 10,800 1,800 Climbing Chicago Center
12:41PM 41.0564 -90.5539 179° South 344 396 12,900 1,980 Climbing Chicago Center
12:42PM 40.8585 -89.9908 178° South  Level Estimated
12:42PM 40.9589 -90.5053 159° South 379 436 15,000  Level Chicago Center
12:43PM 40.8400 -90.4289 154° Southeast 395 455 17,400 1,860 Climbing Chicago Center
12:44PM 40.7383 -90.3619 153° Southeast 406 467 18,900 1,440 Climbing Chicago Center
12:45PM 40.6350 -90.2936 153° Southeast 415 478 20,400 1,560 Climbing Chicago Center
12:46PM 40.5125 -90.2142 154° Southeast 426 490 22,200 1,440 Climbing Chicago Center
12:47PM 40.4203 -90.1550 154° Southeast 434 499 23,400 1,320 Climbing Chicago Center
12:48PM 40.2864 -90.0706 154° Southeast 443 510 25,000 1,320 Climbing Kansas City Center
12:49PM 40.1733 -89.9986 154° Southeast 448 516 26,200 1,020 Climbing Kansas City Center
12:50PM 40.0581 -89.9253 154° Southeast 458 527 27,200 900 Climbing Kansas City Center
12:51PM 39.9411 -89.8508 154° Southeast 465 535 28,100 780 Climbing Kansas City Center
12:52PM 39.8203 -89.7756 154° Southeast 476 548 28,900 720 Climbing Kansas City Center
12:53PM 39.6936 -89.6956 154° Southeast 486 559 29,700 960 Climbing Kansas City Center
12:54PM 39.5464 -89.6025 154° Southeast 488 562 31,000 1,140 Climbing Kansas City Center
12:56PM 39.4244 -89.5272 155° Southeast 488 562 32,100 1,020 Climbing Kansas City Center
12:57PM 39.3036 -89.4528 155° Southeast 484 557 33,200 1,020 Climbing Kansas City Center
12:58PM 39.1847 -89.3789 154° Southeast 479 551 34,300 1,080 Climbing Kansas City Center
12:59PM 39.0692 -89.3081 155° Southeast 466 536 35,400 720 Climbing Kansas City Center
01:00PM 38.9528 -89.2372 155° Southeast 462 532 35,800 420 Climbing Kansas City Center
01:01PM 38.8344 -89.1661 155° Southeast 463 533 36,300 480 Climbing Kansas City Center
01:02PM 38.6914 -89.0792 155° Southeast 468 539 36,900 300 Climbing Kansas City Center
01:03PM 38.5617 -89.0022 155° Southeast 475 547 37,000  Climbing Kansas City Center
01:04PM 38.4381 -88.9269 154° Southeast 486 559 37,000  Level Kansas City Center
01:05PM 38.3197 -88.8564 155° Southeast 496 571 37,000  Level Kansas City Center
01:06PM 38.1967 -88.7819 155° Southeast 496 571 37,000  Level Kansas City Center
01:07PM 38.0747 -88.7094 155° Southeast 491 565 37,000  Level Kansas City Center
01:08PM 37.9344 -88.6264 155° Southeast 468 539 37,000  Level Kansas City Center
01:09PM 37.8136 -88.5556 155° Southeast 470 541 37,000  Level Kansas City Center
01:10PM 37.6928 -88.4842 155° Southeast 474 545 37,000  Level Kansas City Center
01:11PM 37.5711 -88.4122 155° Southeast 476 548 37,000  Level Kansas City Center
01:12PM 37.4389 -88.3356 155° Southeast 476 548 37,000  Level Kansas City Center
01:13PM 37.2975 -88.2383 151° Southeast 486 559 37,000  Level Memphis Center
01:14PM 37.1819 -88.0897 134° Southeast 508 585 37,000  Level Memphis Center
01:15PM 37.0856 -87.9575 132° Southeast 509 586 37,000  Level Memphis Center
01:16PM 36.9886 -87.8242 132° Southeast 510 587 37,000  Level Memphis Center
01:17PM 36.8911 -87.6922 133° Southeast 510 587 37,000  Level Memphis Center
01:19PM 36.7936 -87.5603 133° Southeast 510 587 37,000  Level Memphis Center
01:20PM 36.6958 -87.4289 133° Southeast 510 587 37,000  Level Memphis Center
01:21PM 36.5978 -87.2978 133° Southeast 511 588 37,000 -300 Level Memphis Center
01:22PM 36.4839 -87.1447 133° Southeast 511 588 36,400 -780 Descending Memphis Center
01:23PM 36.3842 -87.0131 133° Southeast 516 594 35,400 -900 Descending Memphis Center
01:24PM 36.2781 -86.8728 133° Southeast 517 595 34,600 -720 Descending Memphis Center
01:25PM 36.1897 -86.7569 133° Southeast 520 598 34,000 -300 Descending Memphis Center
01:26PM 36.0825 -86.6417 139° Southeast 509 586 34,000 -540 Level Memphis Center
01:27PM 35.9469 -86.5319 147° Southeast 498 573 33,000 -540 Descending Memphis Center
01:28PM 35.8344 -86.4408 147° Southeast 486 559 33,000  Level Memphis Center
01:29PM 35.7208 -86.3497 147° Southeast 483 556 33,000  Level Memphis Center
01:30PM 35.6056 -86.2556 146° Southeast 487 560 33,000  Level Memphis Center
01:31PM 35.5283 -86.1950 147° Southeast 494 568 33,000  Level Atlanta Center
01:32PM 35.4111 -86.1028 147° Southeast 494 568 33,000  Level Atlanta Center
01:33PM 35.2856 -85.9978 146° Southeast 494 568 33,000 -360 Level Atlanta Center
01:34PM 35.1822 -85.9192 148° Southeast 494 568 32,300 -900 Descending Atlanta Center
01:35PM 35.0647 -85.8278 148° Southeast 494 568 31,300 -1,020 Descending Atlanta Center
01:36PM 34.9472 -85.7339 147° Southeast 494 568 30,300 -1,020 Descending Atlanta Center
01:37PM 34.8356 -85.6433 146° Southeast 489 563 29,300 -1,020 Descending Atlanta Center
01:38PM 34.7261 -85.5603 148° Southeast 489 563 28,300 -1,260 Descending Atlanta Center
01:39PM 34.6167 -85.4725 147° Southeast 484 557 26,800 -2,100 Descending Atlanta Center
01:40PM 34.5069 -85.3900 148° Southeast 473 544 24,100 3,060 Descending Atlanta Center
01:41PM 34.4014 -85.3103 148° Southeast 467 537 33,000 -2,700 Climbing Atlanta Center
01:42PM 34.2978 -85.2181 144° Southeast 434 499 18,800 -8,340 Descending Atlanta Center
01:43PM 34.1986 -85.1264 143° Southeast 434 499 16,400 -2,280 Descending Atlanta Center
01:44PM 34.1094 -85.0422 142° Southeast 433 498 14,300 -1,380 Descending Atlanta Center
01:45PM 34.0308 -84.9511 136° Southeast 401 461 13,700 -900 Descending Atlanta Center
01:46PM 33.9586 -84.8578 133° Southeast 381 438 12,600 -900 Descending Atlanta Center
01:47PM 33.8839 -84.7669 135° Southeast 381 438 12,000 -300 Descending Atlanta Center
01:48PM 33.8092 -84.6789 136° Southeast 381 438 12,000  Level Atlanta Center
01:49PM 33.7408 -84.5908 133° Southeast 363 418 12,000 -360 Level Atlanta Center
01:50PM 33.7328 -84.4958 96° East 289 333 11,300 -1,320 Descending Atlanta Center
01:51PM 33.7333 -84.3986 90° East 284 327 9,400 -1,800 Descending Atlanta Center
01:52PM 33.7314 -84.3061 91° East 279 321 7,700 -1,800 Descending Atlanta Center
01:53PM 33.7333 -84.2167 88° East 262 302 5,800 -1,380 Descending Atlanta TRACON
01:54PM 33.6833 -84.1833 151° Southeast 206 237 4,900 -1,020 Descending Atlanta TRACON
01:55PM 33.6500 -84.2333 231° Southwest 189 217 3,800 -960 Descending Atlanta TRACON
01:56PM 33.6500 -84.3000 270° West 176 203 3,000 -900 Descending Atlanta TRACON
01:57PM 33.6500 -84.3500 270° West 140 161 2,100 -900 Descending Atlanta TRACON
01:58PM 33.6500 -84.4000 270° West 135 155 1,300 -840 Descending Atlanta TRACON
02:00PM 33.6333 -84.4167 North  Level FlightAware Approximate
02:07PM 33.6367 -84.4279 North  Level Estimated